createdAt,value
2022-07-28T00:00:30.190Z,13.12
2022-07-28T00:01:30.217Z,13.09
2022-07-28T00:02:30.300Z,13.08
2022-07-28T00:03:30.187Z,13.05
2022-07-28T00:04:30.147Z,13.03
2022-07-28T00:05:30.115Z,13.00
2022-07-28T00:06:30.119Z,13.00
2022-07-28T00:07:30.104Z,12.98
2022-07-28T00:08:30.094Z,12.93
2022-07-28T00:09:30.094Z,12.91
2022-07-28T00:10:30.076Z,12.90
2022-07-28T00:11:30.059Z,12.86
2022-07-28T00:12:30.059Z,12.87
2022-07-28T00:13:30.035Z,12.86
2022-07-28T00:14:30.049Z,12.86
2022-07-28T00:15:30.016Z,12.86
2022-07-28T00:16:30.119Z,12.86
2022-07-28T00:17:29.995Z,12.90
2022-07-28T00:18:30.000Z,12.91
2022-07-28T00:19:29.985Z,12.90
2022-07-28T00:20:29.979Z,12.90
2022-07-28T00:21:29.952Z,12.94
2022-07-28T00:22:29.950Z,12.93
2022-07-28T00:23:38.876Z,12.91
2022-07-28T00:24:29.930Z,12.90
2022-07-28T00:25:29.920Z,12.87
2022-07-28T00:26:29.908Z,12.87
2022-07-28T00:27:29.892Z,12.87
2022-07-28T00:28:29.884Z,12.91
2022-07-28T00:29:49.831Z,12.95
2022-07-28T00:30:29.885Z,12.97
2022-07-28T00:31:29.884Z,12.94
2022-07-28T00:32:29.845Z,12.97
2022-07-28T00:33:29.833Z,12.95
2022-07-28T00:34:29.816Z,12.97
2022-07-28T00:35:30.926Z,12.98
2022-07-28T00:36:29.801Z,13.00
2022-07-28T00:37:29.785Z,13.00
2022-07-28T00:38:29.789Z,13.00
2022-07-28T00:39:29.772Z,13.01
2022-07-28T00:40:29.785Z,13.03
2022-07-28T00:41:29.758Z,13.03
2022-07-28T00:42:29.740Z,13.03
2022-07-28T00:43:29.718Z,13.04
2022-07-28T00:44:29.714Z,13.03
2022-07-28T00:45:29.698Z,13.00
2022-07-28T00:46:29.745Z,13.00
2022-07-28T00:47:33.430Z,12.98
2022-07-28T00:48:29.681Z,12.97
2022-07-28T00:49:29.658Z,12.95
2022-07-28T00:50:29.651Z,12.95
2022-07-28T00:51:29.644Z,12.95
2022-07-28T00:52:29.633Z,12.98
2022-07-28T00:53:29.623Z,12.98
2022-07-28T00:54:29.613Z,13.01
2022-07-28T00:55:29.585Z,13.00
2022-07-28T00:56:29.604Z,13.04
2022-07-28T00:57:29.570Z,13.03
2022-07-28T00:58:29.566Z,13.03
2022-07-28T00:59:29.544Z,13.01
2022-07-28T01:00:29.559Z,13.03
2022-07-28T01:01:29.601Z,13.03
2022-07-28T01:02:29.710Z,13.01
2022-07-28T01:03:29.500Z,12.98
2022-07-28T01:04:29.506Z,12.93
2022-07-28T01:05:43.260Z,12.91
2022-07-28T01:06:29.495Z,12.86
2022-07-28T01:07:29.458Z,12.83
2022-07-28T01:08:29.470Z,12.83
2022-07-28T01:09:29.446Z,12.83
2022-07-28T01:10:29.437Z,12.87
2022-07-28T01:11:29.436Z,12.87
2022-07-28T01:12:29.423Z,12.85
2022-07-28T01:13:32.877Z,12.86
2022-07-28T01:14:29.395Z,12.86
2022-07-28T01:15:29.377Z,12.82
2022-07-28T01:16:29.479Z,12.82
2022-07-28T01:17:29.368Z,12.80
2022-07-28T01:18:29.352Z,12.80
2022-07-28T01:19:29.347Z,12.76
2022-07-28T01:20:29.336Z,12.73
2022-07-28T01:21:29.316Z,12.75
2022-07-28T01:22:29.319Z,12.73
2022-07-28T01:23:29.295Z,12.75
2022-07-28T01:24:29.297Z,12.72
2022-07-28T01:25:29.277Z,12.73
2022-07-28T01:26:29.282Z,12.72
2022-07-28T01:27:29.267Z,12.72
2022-07-28T01:28:29.255Z,12.73
2022-07-28T01:29:29.231Z,12.72
2022-07-28T01:30:29.236Z,12.73
2022-07-28T01:31:29.250Z,12.68
2022-07-28T01:32:29.228Z,12.70
2022-07-28T01:33:29.202Z,12.72
2022-07-28T01:34:29.183Z,12.70
2022-07-28T01:35:29.161Z,12.67
2022-07-28T01:36:29.163Z,12.62
2022-07-28T01:37:29.155Z,12.61
2022-07-28T01:38:29.146Z,12.60
2022-07-28T01:39:29.136Z,12.60
2022-07-28T01:40:29.124Z,12.60
2022-07-28T01:41:29.099Z,12.58
2022-07-28T01:42:29.117Z,12.60
2022-07-28T01:43:29.092Z,12.61
2022-07-28T01:44:29.076Z,12.65
2022-07-28T01:45:29.056Z,12.62
2022-07-28T01:46:29.169Z,12.64
2022-07-28T01:47:29.071Z,12.62
2022-07-28T01:48:29.059Z,12.61
2022-07-28T01:49:29.045Z,12.60
2022-07-28T01:50:29.032Z,12.57
2022-07-28T01:51:29.007Z,12.53
2022-07-28T01:52:29.025Z,12.46
2022-07-28T01:53:28.974Z,12.42
2022-07-28T01:54:28.981Z,12.35
2022-07-28T01:55:28.967Z,12.31
2022-07-28T01:56:28.953Z,12.29
2022-07-28T01:57:28.950Z,12.27
2022-07-28T01:58:28.956Z,12.27
2022-07-28T01:59:28.930Z,12.24
2022-07-28T02:00:28.911Z,12.25
2022-07-28T02:01:28.921Z,12.28
2022-07-28T02:02:28.909Z,12.27
2022-07-28T02:03:28.890Z,12.27
2022-07-28T02:04:28.875Z,12.28
2022-07-28T02:05:28.928Z,12.28
2022-07-28T02:06:28.857Z,12.22
2022-07-28T02:07:28.836Z,12.17
2022-07-28T02:08:28.863Z,12.10
2022-07-28T02:09:28.816Z,12.09
2022-07-28T02:10:28.805Z,12.09
2022-07-28T02:11:28.785Z,12.07
2022-07-28T02:12:28.790Z,12.09
2022-07-28T02:13:28.778Z,12.09
2022-07-28T02:14:28.769Z,12.10
2022-07-28T02:15:28.759Z,12.09
2022-07-28T02:16:28.840Z,12.09
2022-07-28T02:17:28.735Z,12.09
2022-07-28T02:18:28.721Z,12.09
2022-07-28T02:19:28.706Z,12.07
2022-07-28T02:20:28.713Z,12.06
2022-07-28T02:21:28.689Z,12.09
2022-07-28T02:22:28.665Z,12.09
2022-07-28T02:23:28.661Z,12.10
2022-07-28T02:24:28.673Z,12.12
2022-07-28T02:25:28.651Z,12.13
2022-07-28T02:26:28.641Z,12.15
2022-07-28T02:27:28.622Z,12.13
2022-07-28T02:28:28.625Z,12.13
2022-07-28T02:29:49.855Z,12.12
2022-07-28T02:30:28.604Z,12.12
2022-07-28T02:31:28.723Z,12.09
2022-07-28T02:32:28.830Z,12.04
2022-07-28T02:33:59.825Z,12.02
2022-07-28T02:34:28.571Z,11.95
2022-07-28T02:35:29.070Z,11.90
2022-07-28T02:36:28.540Z,11.86
2022-07-28T02:37:28.519Z,11.73
2022-07-28T02:38:28.518Z,11.70
2022-07-28T02:39:28.510Z,11.65
2022-07-28T02:40:28.494Z,11.60
2022-07-28T02:41:28.491Z,11.55
2022-07-28T02:42:28.478Z,11.54
2022-07-28T02:43:45.862Z,11.51
2022-07-28T02:44:28.458Z,11.45
2022-07-28T02:45:28.432Z,11.47
2022-07-28T02:46:28.505Z,11.47
2022-07-28T02:47:28.416Z,11.48
2022-07-28T02:48:28.406Z,11.48
2022-07-28T02:49:28.388Z,11.47
2022-07-28T02:50:28.400Z,11.47
2022-07-28T02:51:28.372Z,11.48
2022-07-28T02:52:28.364Z,11.48
2022-07-28T02:53:28.348Z,11.48
2022-07-28T02:54:28.348Z,11.50
2022-07-28T02:55:28.341Z,11.45
2022-07-28T02:56:28.318Z,11.43
2022-07-28T02:57:28.311Z,11.36
2022-07-28T02:58:28.300Z,11.27
2022-07-28T02:59:28.304Z,11.22
2022-07-28T03:00:28.288Z,11.12
2022-07-28T03:01:28.275Z,11.08
2022-07-28T03:02:28.212Z,11.04
2022-07-28T03:03:28.247Z,10.94
2022-07-28T03:04:28.193Z,10.89
2022-07-28T03:05:28.270Z,10.81
2022-07-28T03:06:28.911Z,10.74
2022-07-28T03:07:28.203Z,10.69
2022-07-28T03:08:28.196Z,10.67
2022-07-28T03:09:28.132Z,10.67
2022-07-28T03:10:33.101Z,10.64
2022-07-28T03:11:28.118Z,10.64
2022-07-28T03:12:28.096Z,10.64
2022-07-28T03:13:28.090Z,10.68
2022-07-28T03:14:28.074Z,10.63
2022-07-28T03:15:28.089Z,10.63
2022-07-28T03:16:28.130Z,10.63
2022-07-28T03:17:28.050Z,10.64
2022-07-28T03:18:28.029Z,10.63
2022-07-28T03:19:28.029Z,10.63
2022-07-28T03:20:28.013Z,10.61
2022-07-28T03:21:28.015Z,10.61
2022-07-28T03:22:27.997Z,10.63
2022-07-28T03:23:27.982Z,10.60
2022-07-28T03:24:27.971Z,10.60
2022-07-28T03:25:27.970Z,10.60
2022-07-28T03:26:27.945Z,10.56
2022-07-28T03:27:27.948Z,10.53
2022-07-28T03:28:27.927Z,10.56
2022-07-28T03:29:27.926Z,10.54
2022-07-28T03:30:27.983Z,10.53
2022-07-28T03:31:27.906Z,10.54
2022-07-28T03:32:27.888Z,10.56
2022-07-28T03:33:27.899Z,10.57
2022-07-28T03:34:27.861Z,10.59
2022-07-28T03:35:27.859Z,10.56
2022-07-28T03:36:27.843Z,10.57
2022-07-28T03:37:27.848Z,10.53
2022-07-28T03:38:27.818Z,10.49
2022-07-28T03:39:27.818Z,10.49
2022-07-28T03:40:27.807Z,10.46
2022-07-28T03:41:27.800Z,10.44
2022-07-28T03:42:27.792Z,10.41
2022-07-28T03:43:27.779Z,10.40
2022-07-28T03:44:29.005Z,10.38
2022-07-28T03:45:27.747Z,10.37
2022-07-28T03:46:27.796Z,10.35
2022-07-28T03:47:27.747Z,10.35
2022-07-28T03:48:27.713Z,10.35
2022-07-28T03:49:27.710Z,10.38
2022-07-28T03:50:27.696Z,10.37
2022-07-28T03:51:27.696Z,10.38
2022-07-28T03:52:27.683Z,10.38
2022-07-28T03:53:27.670Z,10.37
2022-07-28T03:54:27.668Z,10.38
2022-07-28T03:55:27.656Z,10.40
2022-07-28T03:56:27.643Z,10.41
2022-07-28T03:57:27.631Z,10.46
2022-07-28T03:58:29.012Z,10.48
2022-07-28T03:59:27.629Z,10.51
2022-07-28T04:00:27.604Z,10.54
2022-07-28T04:01:27.622Z,10.56
2022-07-28T04:02:27.626Z,10.59
2022-07-28T04:03:37.598Z,10.60
2022-07-28T04:04:27.560Z,10.61
2022-07-28T04:05:27.540Z,10.64
2022-07-28T04:06:27.533Z,10.68
2022-07-28T04:07:27.533Z,10.69
2022-07-28T04:08:27.503Z,10.74
2022-07-28T04:09:27.519Z,10.75
2022-07-28T04:10:27.490Z,10.79
2022-07-28T04:11:27.493Z,10.82
2022-07-28T04:12:27.456Z,10.82
2022-07-28T04:13:27.468Z,10.84
2022-07-28T04:14:27.448Z,10.86
2022-07-28T04:15:27.440Z,10.87
2022-07-28T04:16:27.518Z,10.89
2022-07-28T04:17:27.417Z,10.92
2022-07-28T04:18:27.397Z,10.94
2022-07-28T04:19:27.410Z,10.99
2022-07-28T04:20:27.386Z,11.02
2022-07-28T04:21:27.374Z,11.07
2022-07-28T04:22:27.352Z,11.10
2022-07-28T04:23:27.357Z,11.12
2022-07-28T04:24:27.359Z,11.14
2022-07-28T04:25:27.349Z,11.19
2022-07-28T04:26:27.320Z,11.22
2022-07-28T04:27:27.317Z,11.26
2022-07-28T04:28:27.300Z,11.29
2022-07-28T04:29:27.742Z,11.32
2022-07-28T04:30:27.306Z,11.35
2022-07-28T04:31:27.416Z,11.37
2022-07-28T04:32:27.258Z,11.41
2022-07-28T04:33:27.251Z,11.43
2022-07-28T04:34:27.229Z,11.45
2022-07-28T04:35:27.245Z,11.50
2022-07-28T04:36:27.223Z,11.52
2022-07-28T04:37:27.218Z,11.55
2022-07-28T04:38:27.195Z,11.60
2022-07-28T04:39:27.189Z,11.65
2022-07-28T04:40:27.185Z,11.66
2022-07-28T04:41:27.185Z,11.69
2022-07-28T04:42:27.153Z,11.72
2022-07-28T04:43:27.149Z,11.77
2022-07-28T04:44:27.131Z,11.78
2022-07-28T04:45:27.131Z,11.80
2022-07-28T04:46:27.158Z,11.83
2022-07-28T04:47:27.108Z,11.87
2022-07-28T04:48:27.091Z,11.87
2022-07-28T04:49:27.083Z,11.90
2022-07-28T04:50:27.071Z,11.91
2022-07-28T04:51:27.075Z,11.97
2022-07-28T04:52:27.040Z,12.00
2022-07-28T04:53:27.040Z,12.03
2022-07-28T04:54:27.030Z,12.07
2022-07-28T04:55:27.032Z,12.09
2022-07-28T04:56:27.022Z,12.10
2022-07-28T04:57:27.007Z,12.13
2022-07-28T04:58:26.987Z,12.18
2022-07-28T04:59:26.985Z,12.20
2022-07-28T05:00:26.963Z,12.22
2022-07-28T05:01:27.024Z,12.27
2022-07-28T05:02:26.961Z,12.31
2022-07-28T05:03:26.942Z,12.32
2022-07-28T05:04:26.975Z,12.37
2022-07-28T05:05:26.910Z,12.40
2022-07-28T05:06:26.897Z,12.40
2022-07-28T05:07:26.909Z,12.43
2022-07-28T05:08:26.875Z,12.46
2022-07-28T05:09:26.876Z,12.46
2022-07-28T05:10:26.864Z,12.50
2022-07-28T05:11:26.853Z,12.54
2022-07-28T05:12:26.843Z,12.53
2022-07-28T05:13:31.924Z,12.55
2022-07-28T05:14:26.821Z,12.55
2022-07-28T05:15:26.817Z,12.55
2022-07-28T05:16:26.839Z,12.57
2022-07-28T05:17:26.801Z,12.58
2022-07-28T05:18:26.776Z,12.61
2022-07-28T05:19:26.769Z,12.61
2022-07-28T05:20:26.755Z,12.62
2022-07-28T05:21:26.747Z,12.64
2022-07-28T05:22:26.745Z,12.68
2022-07-28T05:23:26.745Z,12.70
2022-07-28T05:24:26.711Z,12.72
2022-07-28T05:25:26.704Z,12.76
2022-07-28T05:26:26.696Z,12.78
2022-07-28T05:27:26.705Z,12.82
2022-07-28T05:28:26.664Z,12.86
2022-07-28T05:29:26.659Z,12.91
2022-07-28T05:30:26.657Z,12.93
2022-07-28T05:31:26.691Z,12.98
2022-07-28T05:32:26.665Z,13.01
2022-07-28T05:33:31.817Z,13.04
2022-07-28T05:34:26.615Z,13.09
2022-07-28T05:35:26.607Z,13.12
2022-07-28T05:36:26.572Z,13.15
2022-07-28T05:37:26.589Z,13.18
2022-07-28T05:38:26.586Z,13.19
2022-07-28T05:39:26.562Z,13.25
2022-07-28T05:40:26.534Z,13.27
2022-07-28T05:41:26.534Z,13.33
2022-07-28T05:42:26.530Z,13.37
2022-07-28T05:43:26.530Z,13.39
2022-07-28T05:44:26.494Z,13.47
2022-07-28T05:45:26.584Z,13.54
2022-07-28T05:46:26.479Z,13.59
2022-07-28T05:47:26.487Z,13.65
2022-07-28T05:48:26.454Z,13.71
2022-07-28T05:49:26.519Z,13.74
2022-07-28T05:50:26.433Z,13.78
2022-07-28T05:51:26.433Z,13.79
2022-07-28T05:52:26.415Z,13.86
2022-07-28T05:53:26.426Z,13.90
2022-07-28T05:54:26.391Z,13.95
2022-07-28T05:55:26.405Z,13.97
2022-07-28T05:56:26.371Z,14.03
2022-07-28T05:57:26.375Z,14.07
2022-07-28T05:58:26.366Z,14.05
2022-07-28T05:59:26.346Z,14.10
2022-07-28T06:00:26.335Z,14.12
2022-07-28T06:01:26.383Z,14.12
2022-07-28T06:02:26.369Z,14.10
2022-07-28T06:03:26.316Z,14.10
2022-07-28T06:04:27.734Z,14.11
2022-07-28T06:05:26.288Z,14.12
2022-07-28T06:06:26.267Z,14.12
2022-07-28T06:07:43.812Z,14.15
2022-07-28T06:08:26.272Z,14.20
2022-07-28T06:09:26.262Z,14.23
2022-07-28T06:10:26.223Z,14.28
2022-07-28T06:11:26.216Z,14.30
2022-07-28T06:12:26.208Z,14.33
2022-07-28T06:13:26.204Z,14.35
2022-07-28T06:14:26.188Z,14.36
2022-07-28T06:15:26.193Z,14.41
2022-07-28T06:16:26.192Z,14.44
2022-07-28T06:17:26.164Z,14.44
2022-07-28T06:18:26.140Z,14.47
2022-07-28T06:19:26.147Z,14.50
2022-07-28T06:20:26.120Z,14.54
2022-07-28T06:21:26.121Z,14.58
2022-07-28T06:22:26.101Z,14.63
2022-07-28T06:23:26.106Z,14.66
2022-07-28T06:24:26.085Z,14.70
2022-07-28T06:25:26.087Z,14.72
2022-07-28T06:26:26.060Z,14.77
2022-07-28T06:27:26.058Z,14.79
2022-07-28T06:28:26.028Z,14.82
2022-07-28T06:29:26.035Z,14.85
2022-07-28T06:30:26.032Z,14.84
2022-07-28T06:31:26.123Z,14.86
2022-07-28T06:32:25.992Z,14.85
2022-07-28T06:33:25.989Z,14.89
2022-07-28T06:34:25.989Z,14.92
2022-07-28T06:35:25.970Z,14.99
2022-07-28T06:36:25.952Z,15.06
2022-07-28T06:37:25.941Z,15.14
2022-07-28T06:38:25.934Z,15.19
2022-07-28T06:39:25.937Z,15.24
2022-07-28T06:40:25.905Z,15.28
2022-07-28T06:41:25.954Z,15.29
2022-07-28T06:42:25.912Z,15.33
2022-07-28T06:43:25.888Z,15.39
2022-07-28T06:44:42.510Z,15.43
2022-07-28T06:45:25.860Z,15.51
2022-07-28T06:46:25.913Z,15.57
2022-07-28T06:47:25.854Z,15.57
2022-07-28T06:48:29.096Z,15.59
2022-07-28T06:49:25.854Z,15.67
2022-07-28T06:50:27.161Z,15.73
2022-07-28T06:51:25.806Z,15.79
2022-07-28T06:52:25.773Z,15.79
2022-07-28T06:53:25.768Z,15.91
2022-07-28T06:54:25.754Z,15.97
2022-07-28T06:55:25.757Z,16.01
2022-07-28T06:56:25.758Z,16.09
2022-07-28T06:57:33.125Z,16.02
2022-07-28T06:58:25.721Z,16.02
2022-07-28T06:59:25.709Z,16.12
2022-07-28T07:00:25.758Z,16.15
2022-07-28T07:01:25.769Z,16.09
2022-07-28T07:02:28.159Z,16.08
2022-07-28T07:03:25.677Z,16.01
2022-07-28T07:04:25.709Z,16.09
2022-07-28T07:05:25.668Z,16.15
2022-07-28T07:06:25.640Z,16.17
2022-07-28T07:07:25.629Z,16.26
2022-07-28T07:08:25.615Z,16.35
2022-07-28T07:09:25.611Z,16.46
2022-07-28T07:10:25.706Z,16.64
2022-07-28T07:11:25.582Z,16.76
2022-07-28T07:12:25.579Z,16.99
2022-07-28T07:13:25.576Z,17.11
2022-07-28T07:14:25.543Z,17.24
2022-07-28T07:15:25.539Z,17.42
2022-07-28T07:16:25.623Z,17.51
2022-07-28T07:17:25.514Z,17.48
2022-07-28T07:18:25.521Z,17.31
2022-07-28T07:19:25.496Z,17.29
2022-07-28T07:20:25.525Z,17.29
2022-07-28T07:21:25.486Z,17.31
2022-07-28T07:22:25.465Z,17.24
2022-07-28T07:23:25.468Z,17.20
2022-07-28T07:24:25.454Z,17.15
2022-07-28T07:25:25.428Z,17.15
2022-07-28T07:26:25.432Z,17.23
2022-07-28T07:27:25.416Z,17.23
2022-07-28T07:28:25.410Z,17.22
2022-07-28T07:29:25.388Z,17.34
2022-07-28T07:30:25.479Z,17.38
2022-07-28T07:31:25.394Z,17.33
2022-07-28T07:32:25.377Z,17.38
2022-07-28T07:33:25.350Z,17.56
2022-07-28T07:34:25.335Z,17.87
2022-07-28T07:35:25.320Z,18.37
2022-07-28T07:36:25.321Z,18.73
2022-07-28T07:37:25.300Z,19.30
2022-07-28T07:38:29.122Z,19.58
2022-07-28T07:39:25.275Z,19.34
2022-07-28T07:40:25.277Z,19.40
2022-07-28T07:41:25.265Z,19.34
2022-07-28T07:42:25.269Z,19.55
2022-07-28T07:43:25.251Z,19.76
2022-07-28T07:44:25.239Z,20.04
2022-07-28T07:45:25.224Z,20.24
2022-07-28T07:46:25.231Z,20.50
2022-07-28T07:47:25.192Z,20.72
2022-07-28T07:48:25.213Z,21.06
2022-07-28T07:49:25.266Z,21.30
2022-07-28T07:50:25.176Z,21.45
2022-07-28T07:51:25.153Z,21.52
2022-07-28T07:52:25.152Z,21.36
2022-07-28T07:53:25.142Z,21.05
2022-07-28T07:54:25.135Z,21.03
2022-07-28T07:55:25.101Z,21.17
2022-07-28T07:56:25.101Z,21.25
2022-07-28T07:57:25.084Z,21.22
2022-07-28T07:58:25.094Z,20.99
2022-07-28T07:59:25.149Z,20.75
2022-07-28T08:00:28.175Z,20.44
2022-07-28T08:01:25.071Z,20.40
2022-07-28T08:02:25.042Z,20.40
2022-07-28T08:03:26.543Z,20.58
2022-07-28T08:04:25.453Z,20.66
2022-07-28T08:05:35.154Z,20.77
2022-07-28T08:06:26.202Z,20.88
2022-07-28T08:07:24.986Z,20.88
2022-07-28T08:08:24.985Z,20.78
2022-07-28T08:09:25.046Z,20.77
2022-07-28T08:10:24.978Z,20.80
2022-07-28T08:11:24.943Z,20.97
2022-07-28T08:12:25.623Z,21.17
2022-07-28T08:13:24.924Z,21.32
2022-07-28T08:14:24.920Z,21.46
2022-07-28T08:15:24.915Z,21.51
2022-07-28T08:16:24.964Z,21.60
2022-07-28T08:17:26.287Z,21.61
2022-07-28T08:18:24.881Z,21.62
2022-07-28T08:19:24.870Z,21.58
2022-07-28T08:20:24.859Z,21.73
2022-07-28T08:21:24.838Z,22.00
2022-07-28T08:22:24.873Z,21.93
2022-07-28T08:23:26.381Z,22.06
2022-07-28T08:24:29.014Z,21.95
2022-07-28T08:25:24.793Z,22.15
2022-07-28T08:26:24.808Z,21.73
2022-07-28T08:27:24.792Z,21.66
2022-07-28T08:28:24.776Z,21.15
2022-07-28T08:29:24.776Z,21.00
2022-07-28T08:30:28.792Z,21.02
2022-07-28T08:31:24.850Z,21.12
2022-07-28T08:32:24.749Z,21.33
2022-07-28T08:33:24.716Z,21.51
2022-07-28T08:34:31.099Z,21.62
2022-07-28T08:35:34.310Z,21.67
2022-07-28T08:36:24.703Z,21.79
2022-07-28T08:37:24.680Z,22.04
2022-07-28T08:38:24.664Z,22.08
2022-07-28T08:39:24.686Z,21.79
2022-07-28T08:40:27.593Z,21.42
2022-07-28T08:41:24.640Z,21.32
2022-07-28T08:42:24.639Z,21.36
2022-07-28T08:43:24.609Z,21.50
2022-07-28T08:44:24.610Z,21.43
2022-07-28T08:45:24.596Z,21.25
2022-07-28T08:46:24.648Z,21.12
2022-07-28T08:47:24.576Z,21.30
2022-07-28T08:48:24.568Z,21.37
2022-07-28T08:49:24.648Z,21.37
2022-07-28T08:50:24.674Z,21.52
2022-07-28T08:51:24.519Z,21.58
2022-07-28T08:52:24.532Z,21.61
2022-07-28T08:53:24.516Z,21.67
2022-07-28T08:54:24.504Z,21.72
2022-07-28T08:55:24.482Z,21.79
2022-07-28T08:56:24.490Z,21.91
2022-07-28T08:57:24.476Z,21.98
2022-07-28T08:58:24.456Z,21.80
2022-07-28T08:59:24.521Z,21.55
2022-07-28T09:00:24.432Z,21.39
2022-07-28T09:01:24.490Z,21.24
2022-07-28T09:02:24.590Z,21.20
2022-07-28T09:03:24.487Z,21.00
2022-07-28T09:04:24.404Z,21.02
2022-07-28T09:05:24.394Z,21.12
2022-07-28T09:06:24.386Z,21.17
2022-07-28T09:07:24.358Z,21.24
2022-07-28T09:08:24.369Z,21.30
2022-07-28T09:09:24.340Z,21.30
2022-07-28T09:10:24.337Z,21.20
2022-07-28T09:11:24.332Z,21.20
2022-07-28T09:12:26.777Z,20.99
2022-07-28T09:13:24.312Z,20.81
2022-07-28T09:14:24.298Z,20.82
2022-07-28T09:15:24.285Z,20.90
2022-07-28T09:16:24.341Z,20.82
2022-07-28T09:17:24.324Z,20.88
2022-07-28T09:18:24.274Z,21.03
2022-07-28T09:19:24.248Z,21.22
2022-07-28T09:20:24.230Z,21.39
2022-07-28T09:21:24.209Z,21.54
2022-07-28T09:22:24.271Z,21.61
2022-07-28T09:23:43.178Z,21.72
2022-07-28T09:24:24.196Z,21.79
2022-07-28T09:25:24.176Z,21.70
2022-07-28T09:26:24.171Z,21.60
2022-07-28T09:27:24.301Z,21.66
2022-07-28T09:28:24.143Z,21.62
2022-07-28T09:29:24.133Z,21.61
2022-07-28T09:30:24.126Z,21.70
2022-07-28T09:31:24.221Z,21.73
2022-07-28T09:32:24.330Z,21.69
2022-07-28T09:33:42.758Z,21.39
2022-07-28T09:34:24.095Z,21.20
2022-07-28T09:35:24.059Z,21.18
2022-07-28T09:36:24.064Z,21.09
2022-07-28T09:37:27.394Z,21.09
2022-07-28T09:38:24.040Z,21.00
2022-07-28T09:39:24.032Z,21.00
2022-07-28T09:40:24.011Z,21.05
2022-07-28T09:41:24.019Z,21.18
2022-07-28T09:42:24.306Z,21.32
2022-07-28T09:43:23.978Z,21.40
2022-07-28T09:44:23.982Z,21.43
2022-07-28T09:45:24.839Z,21.50
2022-07-28T09:46:24.211Z,21.57
2022-07-28T09:47:24.290Z,21.64
2022-07-28T09:48:24.297Z,21.73
2022-07-28T09:49:28.535Z,21.92
2022-07-28T09:50:23.917Z,22.08
2022-07-28T09:51:23.897Z,22.20
2022-07-28T09:52:23.898Z,22.30
2022-07-28T09:53:23.868Z,22.30
2022-07-28T09:54:23.872Z,22.26
2022-07-28T09:55:23.872Z,22.04
2022-07-28T09:56:23.835Z,21.79
2022-07-28T09:57:23.830Z,21.64
2022-07-28T09:58:23.833Z,21.58
2022-07-28T09:59:23.830Z,21.51
2022-07-28T10:00:23.801Z,21.54
2022-07-28T10:01:24.536Z,21.46
2022-07-28T10:02:23.843Z,21.55
2022-07-28T10:03:23.765Z,21.61
2022-07-28T10:04:23.782Z,21.67
2022-07-28T10:05:23.765Z,21.77
2022-07-28T10:06:23.744Z,21.82
2022-07-28T10:07:23.731Z,21.88
2022-07-28T10:08:23.721Z,22.02
2022-07-28T10:09:23.710Z,22.17
2022-07-28T10:10:23.703Z,22.36
2022-07-28T10:11:23.672Z,22.45
2022-07-28T10:12:23.681Z,22.43
2022-07-28T10:13:23.666Z,22.25
2022-07-28T10:14:23.672Z,22.06
2022-07-28T10:15:30.927Z,21.91
2022-07-28T10:16:23.710Z,21.93
2022-07-28T10:17:23.622Z,22.00
2022-07-28T10:18:23.608Z,22.07
2022-07-28T10:19:23.607Z,22.17
2022-07-28T10:20:24.305Z,22.25
2022-07-28T10:21:23.578Z,22.20
2022-07-28T10:22:23.580Z,22.08
2022-07-28T10:23:23.555Z,22.14
2022-07-28T10:24:23.562Z,22.20
2022-07-28T10:25:23.552Z,22.15
2022-07-28T10:26:23.527Z,22.20
2022-07-28T10:27:23.509Z,22.30
2022-07-28T10:28:23.521Z,22.38
2022-07-28T10:29:23.495Z,22.32
2022-07-28T10:30:23.501Z,22.11
2022-07-28T10:31:23.597Z,22.00
2022-07-28T10:32:23.474Z,22.07
2022-07-28T10:33:23.450Z,22.17
2022-07-28T10:34:24.677Z,22.32
2022-07-28T10:35:23.425Z,22.44
2022-07-28T10:36:23.432Z,22.57
2022-07-28T10:37:23.401Z,22.80
2022-07-28T10:38:23.419Z,22.81
2022-07-28T10:39:23.438Z,22.93
2022-07-28T10:40:23.381Z,22.98
2022-07-28T10:41:23.361Z,22.96
2022-07-28T10:42:23.372Z,22.99
2022-07-28T10:43:23.368Z,23.08
2022-07-28T10:44:23.351Z,23.18
2022-07-28T10:45:26.508Z,23.31
2022-07-28T10:46:23.391Z,23.02
2022-07-28T10:47:23.371Z,22.76
2022-07-28T10:48:23.633Z,22.70
2022-07-28T10:49:27.701Z,22.72
2022-07-28T10:50:23.291Z,22.68
2022-07-28T10:51:23.260Z,22.68
2022-07-28T10:52:46.278Z,22.78
2022-07-28T10:53:23.246Z,22.68
2022-07-28T10:54:25.187Z,22.62
2022-07-28T10:55:23.223Z,22.69
2022-07-28T10:56:23.217Z,22.84
2022-07-28T10:57:23.203Z,22.96
2022-07-28T10:58:25.034Z,22.84
2022-07-28T10:59:23.191Z,22.78
2022-07-28T11:00:26.466Z,22.68
2022-07-28T11:01:47.252Z,22.70
2022-07-28T11:02:24.532Z,22.81
2022-07-28T11:03:23.330Z,22.85
2022-07-28T11:04:29.010Z,22.84
2022-07-28T11:05:23.126Z,22.94
2022-07-28T11:06:23.120Z,23.02
2022-07-28T11:07:23.100Z,23.02
2022-07-28T11:08:23.097Z,23.03
2022-07-28T11:09:23.089Z,22.90
2022-07-28T11:10:23.082Z,22.98
2022-07-28T11:11:23.055Z,23.06
2022-07-28T11:12:23.057Z,23.12
2022-07-28T11:13:23.040Z,23.17
2022-07-28T11:14:23.157Z,23.28
2022-07-28T11:15:23.004Z,23.25
2022-07-28T11:16:23.089Z,23.21
2022-07-28T11:17:24.345Z,23.25
2022-07-28T11:18:22.997Z,23.34
2022-07-28T11:19:40.569Z,23.24
2022-07-28T11:20:27.474Z,23.27
2022-07-28T11:21:22.962Z,23.20
2022-07-28T11:22:22.953Z,23.03
2022-07-28T11:23:22.937Z,23.05
2022-07-28T11:24:22.929Z,23.15
2022-07-28T11:25:23.154Z,23.06
2022-07-28T11:26:22.911Z,23.08
2022-07-28T11:27:22.901Z,22.93
2022-07-28T11:28:22.881Z,22.93
2022-07-28T11:29:22.868Z,22.88
2022-07-28T11:30:22.957Z,22.93
2022-07-28T11:31:22.845Z,23.05
2022-07-28T11:32:22.840Z,23.20
2022-07-28T11:33:22.820Z,23.28
2022-07-28T11:34:22.822Z,23.24
2022-07-28T11:35:22.822Z,23.34
2022-07-28T11:36:22.809Z,23.40
2022-07-28T11:37:22.789Z,23.37
2022-07-28T11:38:22.769Z,23.36
2022-07-28T11:39:22.773Z,23.43
2022-07-28T11:40:22.779Z,23.54
2022-07-28T11:41:22.754Z,23.69
2022-07-28T11:42:22.733Z,23.32
2022-07-28T11:43:24.229Z,23.25
2022-07-28T11:44:22.722Z,23.28
2022-07-28T11:45:22.729Z,23.34
2022-07-28T11:46:22.761Z,23.36
2022-07-28T11:47:22.682Z,23.34
2022-07-28T11:48:22.671Z,23.23
2022-07-28T11:49:22.759Z,23.21
2022-07-28T11:50:22.642Z,23.20
2022-07-28T11:51:22.654Z,23.10
2022-07-28T11:52:22.839Z,23.05
2022-07-28T11:53:22.627Z,23.23
2022-07-28T11:54:22.606Z,23.48
2022-07-28T11:55:56.133Z,23.63
2022-07-28T11:56:22.616Z,23.77
2022-07-28T11:57:22.596Z,23.80
2022-07-28T11:58:22.565Z,23.81
2022-07-28T11:59:22.557Z,23.91
2022-07-28T12:00:22.552Z,23.88
2022-07-28T12:01:22.556Z,23.81
2022-07-28T12:02:22.651Z,23.69
2022-07-28T12:03:27.351Z,23.54
2022-07-28T12:04:22.532Z,23.51
2022-07-28T12:05:22.514Z,23.56
2022-07-28T12:06:28.850Z,23.71
2022-07-28T12:07:22.490Z,23.98
2022-07-28T12:08:22.468Z,24.23
2022-07-28T12:09:26.336Z,24.48
2022-07-28T12:10:44.053Z,24.70
2022-07-28T12:11:22.452Z,24.77
2022-07-28T12:12:22.430Z,24.81
2022-07-28T12:13:22.415Z,24.86
2022-07-28T12:14:22.407Z,24.89
2022-07-28T12:15:22.397Z,24.81
2022-07-28T12:16:22.420Z,24.74
2022-07-28T12:17:22.383Z,24.48
2022-07-28T12:18:25.447Z,24.36
2022-07-28T12:19:22.361Z,24.40
2022-07-28T12:20:22.343Z,24.33
2022-07-28T12:21:22.343Z,24.30
2022-07-28T12:22:22.325Z,24.20
2022-07-28T12:23:22.325Z,24.23
2022-07-28T12:24:22.702Z,24.36
2022-07-28T12:25:22.287Z,24.43
2022-07-28T12:26:22.280Z,24.55
2022-07-28T12:27:25.023Z,24.63
2022-07-28T12:28:22.268Z,24.68
2022-07-28T12:29:22.244Z,24.76
2022-07-28T12:30:22.233Z,24.81
2022-07-28T12:31:22.273Z,24.84
2022-07-28T12:32:22.220Z,24.80
2022-07-28T12:33:26.088Z,24.78
2022-07-28T12:34:22.213Z,24.70
2022-07-28T12:35:22.194Z,24.40
2022-07-28T12:36:22.165Z,24.38
2022-07-28T12:37:22.178Z,24.45
2022-07-28T12:38:22.149Z,24.35
2022-07-28T12:39:22.168Z,24.36
2022-07-28T12:40:27.340Z,24.51
2022-07-28T12:41:22.140Z,24.51
2022-07-28T12:42:22.109Z,24.45
2022-07-28T12:43:22.109Z,24.48
2022-07-28T12:44:22.098Z,24.47
2022-07-28T12:45:22.087Z,24.42
2022-07-28T12:46:22.154Z,24.36
2022-07-28T12:47:22.065Z,24.30
2022-07-28T12:48:22.051Z,24.35
2022-07-28T12:49:22.216Z,24.50
2022-07-28T12:50:22.028Z,24.63
2022-07-28T12:51:22.022Z,24.86
2022-07-28T12:52:22.697Z,24.93